Terminal Aerodrome Forecast
Issued by NWS

Current Version | Previous Version | Text Only | Print | Product List | Glossary On
Versions: 1 2 3 4 5 6 7 8 9 10 11 12
000
FTUS45 KABQ 311700 RRA
TAFFMN
TAF
KFMN 311741Z 3118/0118 13013KT P6SM BKN200
     FM312200 13011G17KT P6SM SCT070 BKN150
     FM010000 11013KT P6SM VCSH SCT060 BKN120
     FM010600 09011KT P6SM SCT050 BKN110
     FM011700 12013KT P6SM FEW045 SCT150=

USA.gov is the U.S. government's official web portal to all federal, state and local government web resources and services.